AirNav   Duncan Aviation - Near you to keep you 
flying
 
 1156 users online  

MY97 Nielsen's Airport
Farmington, Minnesota, USA

GOING TO FARMINGTON?


FAA INFORMATION EFFECTIVE 15 JULY 2021

Location

FAA Identifier: MY97
Lat/Long: 44-35-52.8700N 093-07-36.7700W
44-35.881167N 093-07.612833W
44.5980194,-93.1268806
(estimated)
Elevation: 990 ft. / 302 m (estimated)
Variation: 03E (1990)
From city: 3 miles S of FARMINGTON, MN
Time zone: UTC -5 (UTC -6 during Standard Time)
Zip code: 55024

Airport Operations

Airport use: Private use. Permission required prior to landing
Activation date: 12/1992
Control tower: no
ARTCC: MINNEAPOLIS CENTER
FSS: PRINCETON FLIGHT SERVICE STATION
Attendance: UNATNDD
Wind indicator: yes
Segmented circle: no

Airport Communications

WX AWOS-3 at LVN (5 nm NW): 118.0 (952-469-5850)
WX AWOS-3 at SYN (9 nm SE): 119.35 (507-664-3806)
WX AWOS-3 at SGS (16 nm N): 119.425 (651-457-8120)
WX ASOS at MSP (18 nm N): PHONE 612-713-4174
WX AWOS-3 at FBL (18 nm SW): 120.2 (507-332-2505)
WX ASOS at FCM (20 nm NW): 124.9 (952-941-4156)

Nearby radio navigation aids

VOR radial/distance  VOR name  Freq  Var
FGTr124/3.1FARMINGTON VORTAC115.7006E
MSPr163/18.5MINNEAPOLIS VOR/DME115.3002E
FCMr134/19.2FLYING CLOUD VOR/DME117.7001E
FOWr022/25.8HALFWAY VOR/DME111.2002E
GEPr156/34.5GOPHER VORTAC117.3006E

Airport Services

Runway Information

Runway 18/36

Dimensions: 2000 x 60 ft. / 610 x 18 m
Surface: turf
RUNWAY 18  RUNWAY 36
Traffic pattern: leftleft
Displaced threshold: 160 ft.no

Airport Ownership and Management from official FAA records

Ownership: Privately-owned
Owner: JAMES I. NIELSEN
3196- 240TH STREET WEST
FARMINGTON, MN 55024
Phone 612-743-7761
Manager: JAMES I. NIELSEN
3196- 240TH STREET WEST
FARMINGTON, MN 55024
Phone 612-743-7761

Airport Operational Statistics

Aircraft based on the field: 4
Single engine airplanes: 4
    

Additional Remarks

FOR CD CTC MINNEAPOLIS ARTCC AT 651-463-5588.

Instrument Procedures

There are no published instrument procedures at MY97.

Some nearby airports with instrument procedures:

KLVN - Airlake Airport (5 nm NW)
KSGS - South St Paul Municipal Airport-Richard E Fleming Field (16 nm N)
KMSP - Minneapolis-St Paul International/Wold-Chamberlain Airport (18 nm N)
KFBL - Faribault Municipal Airport-Liz Wall Strohfus Field (18 nm SW)
KFCM - Flying Cloud Airport (20 nm NW)
 
Loc | Ops | Rwys | IFR | FBO | Links
Com | Nav | Svcs | Stats | Notes
Area around MY97 (Nielsen's Airport)
 
Road maps at: MapQuest Bing Google
 
Aerial photo
No photo
 
Sectional chart

 
Airport distance calculator
Flying to Nielsen's Airport? Find the distance to fly.

From to MY97

Sunrise and sunset
Times for 28-Jul-2021
 Local
(UTC-5)
 Zulu
(UTC)
Morning civil twilight05:2210:22
Sunrise05:5610:56
Sunset20:4201:42
Evening civil twilight21:1602:16

Current date and time
Zulu (UTC)  28-Jul-2021 23:28:00
Local (UTC-5)  28-Jul-2021 18:28:00
 
METAR
KLVN 
4nm W 
282315Z AUTO 17004KT 10SM CLR 29/24 A2985 RMK AO2
KSYN 
9nm SE 
282315Z AUTO 19007KT 10SM CLR 30/25 A2986 RMK AO2 T02970247
KSGS 
15nm N 
282315Z AUTO 16006KT 10SM CLR 31/22 A2984 RMK AO2 T03080221
KMSP 
18nm N 
282253Z 19010KT 10SM SCT180 OVC250 32/24 A2985 RMK AO2 SLP101 T03170244
KFBL 
19nm SW 
282315Z AUTO 18007KT 10SM CLR 31/26 A2989 RMK AO2
TAF
KMSP 
18nm N 
282051Z 2821/2924 19011G20KT P6SM SCT150 BKN250 FM290000 23011KT P6SM SCT080 BKN120 TEMPO 2900/2904 4SM -SHRA BR BKN050 FM291100 36007KT P6SM SCT150 FM291400 01008KT P6SM FEW200
NOTAMs
Click for the latest NOTAMs
NOTAMs are issued by the DoD/FAA and will open in a separate window not controlled by AirNav.

 

 
 

Would you like to see your business listed on this page?

 If your business provides an interesting product or service to pilots, flight crews, aircraft, or users of the Nielsen's Airport, you should consider listing it here.  To start the listing process, click on the button below
 
Add a business
 

Other Pages about Nielsen's Airport

Update a link
 
Copyright © AirNav, LLC. All rights reserved. Privacy Policy  Contact